sensor_id;sensor_type;location;lat;lon;timestamp;P1;durP1;ratioP1;P2;durP2;ratioP2
41693;SDS011;27377;50.666;9.150;2022-11-06T00:01:05;16.85;;;10.75;;
41693;SDS011;27377;50.666;9.150;2022-11-06T00:03:41;18.80;;;10.38;;
41693;SDS011;27377;50.666;9.150;2022-11-06T00:06:11;20.58;;;10.95;;
41693;SDS011;27377;50.666;9.150;2022-11-06T00:08:58;16.53;;;10.67;;
41693;SDS011;27377;50.666;9.150;2022-11-06T00:11:24;17.38;;;10.70;;
41693;SDS011;27377;50.666;9.150;2022-11-06T00:13:50;16.08;;;10.30;;
41693;SDS011;27377;50.666;9.150;2022-11-06T00:16:18;15.90;;;10.02;;
41693;SDS011;27377;50.666;9.150;2022-11-06T00:18:44;15.52;;;10.13;;
41693;SDS011;27377;50.666;9.150;2022-11-06T00:21:12;17.13;;;10.27;;
41693;SDS011;27377;50.666;9.150;2022-11-06T00:23:42;17.38;;;10.05;;
41693;SDS011;27377;50.666;9.150;2022-11-06T00:26:19;15.30;;;9.63;;
41693;SDS011;27377;50.666;9.150;2022-11-06T00:28:46;15.98;;;9.50;;
41693;SDS011;27377;50.666;9.150;2022-11-06T00:31:15;15.77;;;9.33;;
41693;SDS011;27377;50.666;9.150;2022-11-06T00:33:45;14.18;;;9.27;;
41693;SDS011;27377;50.666;9.150;2022-11-06T00:36:18;15.73;;;9.20;;
41693;SDS011;27377;50.666;9.150;2022-11-06T00:38:44;18.42;;;9.15;;
41693;SDS011;27377;50.666;9.150;2022-11-06T00:41:12;15.77;;;9.18;;
41693;SDS011;27377;50.666;9.150;2022-11-06T00:43:39;18.23;;;9.38;;
41693;SDS011;27377;50.666;9.150;2022-11-06T00:46:06;14.65;;;9.18;;
41693;SDS011;27377;50.666;9.150;2022-11-06T00:48:33;14.38;;;9.18;;
41693;SDS011;27377;50.666;9.150;2022-11-06T00:51:01;17.20;;;9.15;;
41693;SDS011;27377;50.666;9.150;2022-11-06T00:53:32;16.17;;;9.05;;
41693;SDS011;27377;50.666;9.150;2022-11-06T00:56:10;14.98;;;9.00;;
41693;SDS011;27377;50.666;9.150;2022-11-06T00:58:38;13.73;;;8.57;;
41693;SDS011;27377;50.666;9.150;2022-11-06T01:01:08;15.68;;;8.85;;
41693;SDS011;27377;50.666;9.150;2022-11-06T01:03:39;14.60;;;8.98;;
41693;SDS011;27377;50.666;9.150;2022-11-06T01:06:07;17.45;;;9.50;;
41693;SDS011;27377;50.666;9.150;2022-11-06T01:08:34;14.45;;;8.63;;
41693;SDS011;27377;50.666;9.150;2022-11-06T01:11:08;13.77;;;8.97;;
41693;SDS011;27377;50.666;9.150;2022-11-06T01:13:42;14.73;;;8.93;;
41693;SDS011;27377;50.666;9.150;2022-11-06T01:16:10;14.88;;;9.57;;
41693;SDS011;27377;50.666;9.150;2022-11-06T01:18:38;16.15;;;9.70;;
41693;SDS011;27377;50.666;9.150;2022-11-06T01:21:06;15.17;;;8.83;;
41693;SDS011;27377;50.666;9.150;2022-11-06T01:23:33;15.77;;;9.32;;
41693;SDS011;27377;50.666;9.150;2022-11-06T01:26:01;16.00;;;9.00;;
41693;SDS011;27377;50.666;9.150;2022-11-06T01:28:28;15.30;;;9.32;;
41693;SDS011;27377;50.666;9.150;2022-11-06T01:30:54;16.33;;;9.00;;
41693;SDS011;27377;50.666;9.150;2022-11-06T01:33:19;16.87;;;9.30;;
41693;SDS011;27377;50.666;9.150;2022-11-06T01:35:46;14.93;;;9.45;;
41693;SDS011;27377;50.666;9.150;2022-11-06T01:38:13;14.45;;;9.07;;
41693;SDS011;27377;50.666;9.150;2022-11-06T01:40:44;14.93;;;8.85;;
41693;SDS011;27377;50.666;9.150;2022-11-06T01:43:18;16.50;;;8.85;;
41693;SDS011;27377;50.666;9.150;2022-11-06T01:45:49;15.13;;;9.47;;
41693;SDS011;27377;50.666;9.150;2022-11-06T01:48:17;18.85;;;9.35;;
41693;SDS011;27377;50.666;9.150;2022-11-06T01:50:47;15.85;;;9.18;;
41693;SDS011;27377;50.666;9.150;2022-11-06T01:53:15;14.50;;;8.93;;
41693;SDS011;27377;50.666;9.150;2022-11-06T01:55:43;17.23;;;9.03;;
41693;SDS011;27377;50.666;9.150;2022-11-06T01:58:12;15.80;;;8.88;;
41693;SDS011;27377;50.666;9.150;2022-11-06T02:00:41;13.80;;;8.98;;
41693;SDS011;27377;50.666;9.150;2022-11-06T02:03:08;14.60;;;8.80;;
41693;SDS011;27377;50.666;9.150;2022-11-06T02:05:36;17.45;;;9.43;;
41693;SDS011;27377;50.666;9.150;2022-11-06T02:08:02;16.90;;;9.35;;
41693;SDS011;27377;50.666;9.150;2022-11-06T02:10:29;15.80;;;8.98;;
41693;SDS011;27377;50.666;9.150;2022-11-06T02:21:41;16.07;;;8.67;;
41693;SDS011;27377;50.666;9.150;2022-11-06T02:27:27;15.68;;;8.68;;
41693;SDS011;27377;50.666;9.150;2022-11-06T02:32:40;17.00;;;8.73;;
41693;SDS011;27377;50.666;9.150;2022-11-06T02:35:28;15.48;;;8.35;;
41693;SDS011;27377;50.666;9.150;2022-11-06T02:38:08;16.75;;;8.52;;
41693;SDS011;27377;50.666;9.150;2022-11-06T02:44:18;14.48;;;8.20;;
41693;SDS011;27377;50.666;9.150;2022-11-06T02:46:50;14.65;;;8.40;;
41693;SDS011;27377;50.666;9.150;2022-11-06T02:52:04;17.05;;;8.25;;
41693;SDS011;27377;50.666;9.150;2022-11-06T02:54:36;13.85;;;8.15;;
41693;SDS011;27377;50.666;9.150;2022-11-06T02:57:06;16.33;;;8.57;;
41693;SDS011;27377;50.666;9.150;2022-11-06T03:02:26;13.07;;;8.40;;
41693;SDS011;27377;50.666;9.150;2022-11-06T03:07:38;14.45;;;8.27;;
41693;SDS011;27377;50.666;9.150;2022-11-06T03:10:44;16.48;;;8.23;;
41693;SDS011;27377;50.666;9.150;2022-11-06T03:13:21;14.73;;;7.90;;
41693;SDS011;27377;50.666;9.150;2022-11-06T03:16:02;14.60;;;7.47;;
41693;SDS011;27377;50.666;9.150;2022-11-06T03:18:35;15.13;;;7.80;;
41693;SDS011;27377;50.666;9.150;2022-11-06T03:21:17;13.20;;;7.60;;
41693;SDS011;27377;50.666;9.150;2022-11-06T03:24:12;15.05;;;7.60;;
41693;SDS011;27377;50.666;9.150;2022-11-06T03:26:43;12.88;;;7.30;;
41693;SDS011;27377;50.666;9.150;2022-11-06T03:29:19;12.18;;;6.90;;
41693;SDS011;27377;50.666;9.150;2022-11-06T03:31:58;16.60;;;7.18;;
41693;SDS011;27377;50.666;9.150;2022-11-06T03:34:31;11.90;;;7.00;;
41693;SDS011;27377;50.666;9.150;2022-11-06T03:37:06;12.98;;;6.93;;
41693;SDS011;27377;50.666;9.150;2022-11-06T03:39:39;13.50;;;6.85;;
41693;SDS011;27377;50.666;9.150;2022-11-06T03:42:10;11.75;;;6.53;;
41693;SDS011;27377;50.666;9.150;2022-11-06T03:44:39;13.25;;;6.80;;
41693;SDS011;27377;50.666;9.150;2022-11-06T03:47:12;14.20;;;6.70;;
41693;SDS011;27377;50.666;9.150;2022-11-06T03:49:49;13.77;;;6.88;;
41693;SDS011;27377;50.666;9.150;2022-11-06T03:52:25;11.95;;;6.53;;
41693;SDS011;27377;50.666;9.150;2022-11-06T03:54:58;11.80;;;6.50;;
41693;SDS011;27377;50.666;9.150;2022-11-06T03:57:39;14.13;;;6.50;;
41693;SDS011;27377;50.666;9.150;2022-11-06T04:00:09;12.45;;;6.85;;
41693;SDS011;27377;50.666;9.150;2022-11-06T04:02:37;12.40;;;6.70;;
41693;SDS011;27377;50.666;9.150;2022-11-06T04:05:08;15.45;;;6.75;;
41693;SDS011;27377;50.666;9.150;2022-11-06T04:07:40;13.73;;;6.82;;
41693;SDS011;27377;50.666;9.150;2022-11-06T04:10:29;11.73;;;6.38;;
41693;SDS011;27377;50.666;9.150;2022-11-06T04:13:15;12.80;;;6.68;;
41693;SDS011;27377;50.666;9.150;2022-11-06T04:16:02;10.95;;;6.15;;
41693;SDS011;27377;50.666;9.150;2022-11-06T04:18:28;11.93;;;6.47;;
41693;SDS011;27377;50.666;9.150;2022-11-06T04:21:16;13.30;;;6.10;;
41693;SDS011;27377;50.666;9.150;2022-11-06T04:27:26;13.60;;;6.50;;
41693;SDS011;27377;50.666;9.150;2022-11-06T04:32:28;13.50;;;6.37;;
41693;SDS011;27377;50.666;9.150;2022-11-06T04:37:49;11.55;;;6.25;;
41693;SDS011;27377;50.666;9.150;2022-11-06T04:43:37;16.95;;;6.43;;
41693;SDS011;27377;50.666;9.150;2022-11-06T04:46:19;12.10;;;6.50;;
41693;SDS011;27377;50.666;9.150;2022-11-06T04:48:49;13.52;;;5.95;;
41693;SDS011;27377;50.666;9.150;2022-11-06T04:51:17;10.95;;;6.07;;
41693;SDS011;27377;50.666;9.150;2022-11-06T04:53:46;11.23;;;5.80;;
41693;SDS011;27377;50.666;9.150;2022-11-06T04:56:19;11.60;;;6.10;;
41693;SDS011;27377;50.666;9.150;2022-11-06T04:58:47;11.43;;;5.82;;
41693;SDS011;27377;50.666;9.150;2022-11-06T05:01:13;15.97;;;6.00;;
41693;SDS011;27377;50.666;9.150;2022-11-06T05:03:38;15.40;;;6.50;;
41693;SDS011;27377;50.666;9.150;2022-11-06T05:06:04;13.20;;;5.90;;
41693;SDS011;27377;50.666;9.150;2022-11-06T05:08:30;14.20;;;6.00;;
41693;SDS011;27377;50.666;9.150;2022-11-06T05:10:55;12.88;;;6.10;;
41693;SDS011;27377;50.666;9.150;2022-11-06T05:13:21;10.45;;;5.80;;
41693;SDS011;27377;50.666;9.150;2022-11-06T05:15:46;10.13;;;5.83;;
41693;SDS011;27377;50.666;9.150;2022-11-06T05:18:12;13.63;;;5.53;;
41693;SDS011;27377;50.666;9.150;2022-11-06T05:20:37;12.07;;;5.88;;
41693;SDS011;27377;50.666;9.150;2022-11-06T05:23:03;12.45;;;5.53;;
41693;SDS011;27377;50.666;9.150;2022-11-06T05:25:33;13.63;;;6.00;;
41693;SDS011;27377;50.666;9.150;2022-11-06T05:28:00;13.27;;;6.32;;
41693;SDS011;27377;50.666;9.150;2022-11-06T05:30:29;9.70;;;5.93;;
41693;SDS011;27377;50.666;9.150;2022-11-06T05:32:54;13.73;;;6.43;;
41693;SDS011;27377;50.666;9.150;2022-11-06T05:35:20;13.02;;;6.60;;
41693;SDS011;27377;50.666;9.150;2022-11-06T05:37:45;12.73;;;6.35;;
41693;SDS011;27377;50.666;9.150;2022-11-06T05:40:11;13.15;;;6.75;;
41693;SDS011;27377;50.666;9.150;2022-11-06T05:42:41;14.25;;;6.80;;
41693;SDS011;27377;50.666;9.150;2022-11-06T05:45:08;12.60;;;6.70;;
41693;SDS011;27377;50.666;9.150;2022-11-06T05:47:34;13.50;;;6.80;;
41693;SDS011;27377;50.666;9.150;2022-11-06T05:50:03;12.37;;;6.70;;
41693;SDS011;27377;50.666;9.150;2022-11-06T05:52:29;12.85;;;6.53;;
41693;SDS011;27377;50.666;9.150;2022-11-06T05:54:55;13.23;;;7.43;;
41693;SDS011;27377;50.666;9.150;2022-11-06T05:57:20;12.40;;;7.40;;
41693;SDS011;27377;50.666;9.150;2022-11-06T05:59:46;15.07;;;7.53;;
41693;SDS011;27377;50.666;9.150;2022-11-06T06:02:11;13.23;;;7.20;;
41693;SDS011;27377;50.666;9.150;2022-11-06T06:04:37;13.10;;;7.40;;
41693;SDS011;27377;50.666;9.150;2022-11-06T06:07:02;13.27;;;7.27;;
41693;SDS011;27377;50.666;9.150;2022-11-06T06:09:28;12.53;;;7.13;;
41693;SDS011;27377;50.666;9.150;2022-11-06T06:11:54;14.43;;;7.33;;
41693;SDS011;27377;50.666;9.150;2022-11-06T06:14:19;13.37;;;7.13;;
41693;SDS011;27377;50.666;9.150;2022-11-06T06:16:45;11.35;;;6.97;;
41693;SDS011;27377;50.666;9.150;2022-11-06T06:19:11;12.10;;;6.88;;
41693;SDS011;27377;50.666;9.150;2022-11-06T06:21:37;13.32;;;6.88;;
41693;SDS011;27377;50.666;9.150;2022-11-06T06:24:03;14.37;;;7.10;;
41693;SDS011;27377;50.666;9.150;2022-11-06T06:26:30;12.97;;;7.37;;
41693;SDS011;27377;50.666;9.150;2022-11-06T06:28:56;12.95;;;6.78;;
41693;SDS011;27377;50.666;9.150;2022-11-06T06:31:21;15.30;;;6.77;;
41693;SDS011;27377;50.666;9.150;2022-11-06T06:33:47;12.83;;;6.47;;
41693;SDS011;27377;50.666;9.150;2022-11-06T06:36:13;13.48;;;6.63;;
41693;SDS011;27377;50.666;9.150;2022-11-06T06:38:39;12.45;;;6.65;;
41693;SDS011;27377;50.666;9.150;2022-11-06T06:41:05;16.77;;;6.57;;
41693;SDS011;27377;50.666;9.150;2022-11-06T06:43:32;12.50;;;6.25;;
41693;SDS011;27377;50.666;9.150;2022-11-06T06:45:58;11.67;;;5.97;;
41693;SDS011;27377;50.666;9.150;2022-11-06T06:48:26;13.85;;;6.63;;
41693;SDS011;27377;50.666;9.150;2022-11-06T06:50:52;12.95;;;6.40;;
41693;SDS011;27377;50.666;9.150;2022-11-06T06:53:20;11.68;;;6.60;;
41693;SDS011;27377;50.666;9.150;2022-11-06T06:55:45;12.35;;;6.18;;
41693;SDS011;27377;50.666;9.150;2022-11-06T06:58:11;11.60;;;5.90;;
41693;SDS011;27377;50.666;9.150;2022-11-06T07:00:37;10.82;;;5.78;;
41693;SDS011;27377;50.666;9.150;2022-11-06T07:03:02;11.00;;;5.90;;
41693;SDS011;27377;50.666;9.150;2022-11-06T07:05:31;11.43;;;5.70;;
41693;SDS011;27377;50.666;9.150;2022-11-06T07:07:57;10.98;;;6.10;;
41693;SDS011;27377;50.666;9.150;2022-11-06T07:10:22;12.53;;;5.83;;
41693;SDS011;27377;50.666;9.150;2022-11-06T07:12:48;10.37;;;5.90;;
41693;SDS011;27377;50.666;9.150;2022-11-06T07:15:13;11.27;;;5.60;;
41693;SDS011;27377;50.666;9.150;2022-11-06T07:17:39;11.63;;;5.72;;
41693;SDS011;27377;50.666;9.150;2022-11-06T07:20:05;11.00;;;5.70;;
41693;SDS011;27377;50.666;9.150;2022-11-06T07:22:32;11.85;;;5.50;;
41693;SDS011;27377;50.666;9.150;2022-11-06T07:24:57;10.40;;;5.50;;
41693;SDS011;27377;50.666;9.150;2022-11-06T07:27:23;9.70;;;5.23;;
41693;SDS011;27377;50.666;9.150;2022-11-06T07:29:49;9.93;;;5.73;;
41693;SDS011;27377;50.666;9.150;2022-11-06T07:32:14;11.17;;;5.43;;
41693;SDS011;27377;50.666;9.150;2022-11-06T07:34:40;10.50;;;5.67;;
41693;SDS011;27377;50.666;9.150;2022-11-06T07:37:06;12.90;;;5.70;;
41693;SDS011;27377;50.666;9.150;2022-11-06T07:39:32;13.80;;;5.80;;
41693;SDS011;27377;50.666;9.150;2022-11-06T07:41:57;12.43;;;5.97;;
41693;SDS011;27377;50.666;9.150;2022-11-06T07:44:23;11.40;;;5.77;;
41693;SDS011;27377;50.666;9.150;2022-11-06T07:46:48;11.03;;;5.40;;
41693;SDS011;27377;50.666;9.150;2022-11-06T07:49:14;10.32;;;5.40;;
41693;SDS011;27377;50.666;9.150;2022-11-06T07:51:43;10.85;;;5.50;;
41693;SDS011;27377;50.666;9.150;2022-11-06T07:54:09;9.75;;;5.70;;
41693;SDS011;27377;50.666;9.150;2022-11-06T07:56:35;10.75;;;5.75;;
41693;SDS011;27377;50.666;9.150;2022-11-06T07:59:01;11.00;;;4.95;;
41693;SDS011;27377;50.666;9.150;2022-11-06T08:01:28;11.63;;;4.90;;
41693;SDS011;27377;50.666;9.150;2022-11-06T08:03:53;10.70;;;5.17;;
41693;SDS011;27377;50.666;9.150;2022-11-06T08:06:19;10.65;;;5.15;;
41693;SDS011;27377;50.666;9.150;2022-11-06T08:08:45;9.50;;;5.00;;
41693;SDS011;27377;50.666;9.150;2022-11-06T08:11:11;8.32;;;5.15;;
41693;SDS011;27377;50.666;9.150;2022-11-06T08:13:37;12.88;;;5.70;;
41693;SDS011;27377;50.666;9.150;2022-11-06T08:16:08;10.15;;;4.88;;
41693;SDS011;27377;50.666;9.150;2022-11-06T08:18:35;10.90;;;5.07;;
41693;SDS011;27377;50.666;9.150;2022-11-06T08:21:01;11.35;;;5.63;;
41693;SDS011;27377;50.666;9.150;2022-11-06T08:23:27;10.77;;;5.25;;
41693;SDS011;27377;50.666;9.150;2022-11-06T08:25:54;9.57;;;5.40;;
41693;SDS011;27377;50.666;9.150;2022-11-06T08:28:22;11.55;;;5.75;;
41693;SDS011;27377;50.666;9.150;2022-11-06T08:30:48;11.70;;;6.00;;
41693;SDS011;27377;50.666;9.150;2022-11-06T08:33:14;11.02;;;5.53;;
41693;SDS011;27377;50.666;9.150;2022-11-06T08:35:40;10.50;;;5.57;;
41693;SDS011;27377;50.666;9.150;2022-11-06T08:38:05;12.37;;;5.63;;
41693;SDS011;27377;50.666;9.150;2022-11-06T08:40:31;10.83;;;5.20;;
41693;SDS011;27377;50.666;9.150;2022-11-06T08:42:58;11.43;;;5.30;;
41693;SDS011;27377;50.666;9.150;2022-11-06T08:45:24;9.80;;;4.97;;
41693;SDS011;27377;50.666;9.150;2022-11-06T08:47:50;9.53;;;5.00;;
41693;SDS011;27377;50.666;9.150;2022-11-06T08:50:15;9.23;;;4.90;;
41693;SDS011;27377;50.666;9.150;2022-11-06T08:52:41;9.38;;;4.60;;
41693;SDS011;27377;50.666;9.150;2022-11-06T08:55:07;9.88;;;4.70;;
41693;SDS011;27377;50.666;9.150;2022-11-06T08:57:32;11.93;;;4.95;;
41693;SDS011;27377;50.666;9.150;2022-11-06T08:59:58;9.25;;;4.78;;
41693;SDS011;27377;50.666;9.150;2022-11-06T09:02:23;11.93;;;4.88;;
41693;SDS011;27377;50.666;9.150;2022-11-06T09:04:49;10.70;;;5.00;;
41693;SDS011;27377;50.666;9.150;2022-11-06T09:07:15;9.73;;;4.90;;
41693;SDS011;27377;50.666;9.150;2022-11-06T09:09:41;11.52;;;4.60;;
41693;SDS011;27377;50.666;9.150;2022-11-06T09:12:06;11.32;;;5.20;;
41693;SDS011;27377;50.666;9.150;2022-11-06T09:14:32;10.48;;;4.60;;
41693;SDS011;27377;50.666;9.150;2022-11-06T09:16:58;10.30;;;4.90;;
41693;SDS011;27377;50.666;9.150;2022-11-06T09:19:24;10.10;;;5.00;;
41693;SDS011;27377;50.666;9.150;2022-11-06T09:21:50;8.98;;;4.50;;
41693;SDS011;27377;50.666;9.150;2022-11-06T09:24:15;9.27;;;4.65;;
41693;SDS011;27377;50.666;9.150;2022-11-06T09:26:41;8.07;;;4.68;;
41693;SDS011;27377;50.666;9.150;2022-11-06T09:29:06;11.13;;;4.63;;
41693;SDS011;27377;50.666;9.150;2022-11-06T09:31:32;8.82;;;4.63;;
41693;SDS011;27377;50.666;9.150;2022-11-06T09:33:58;9.63;;;4.78;;
41693;SDS011;27377;50.666;9.150;2022-11-06T09:36:27;9.43;;;4.70;;
41693;SDS011;27377;50.666;9.150;2022-11-06T09:38:52;8.15;;;4.70;;
41693;SDS011;27377;50.666;9.150;2022-11-06T09:41:21;10.43;;;5.20;;
41693;SDS011;27377;50.666;9.150;2022-11-06T09:46:47;10.02;;;4.65;;
41693;SDS011;27377;50.666;9.150;2022-11-06T09:52:10;8.75;;;4.53;;
41693;SDS011;27377;50.666;9.150;2022-11-06T09:55:14;10.43;;;4.53;;
41693;SDS011;27377;50.666;9.150;2022-11-06T09:57:49;8.80;;;4.15;;
41693;SDS011;27377;50.666;9.150;2022-11-06T10:00:16;8.50;;;4.20;;
41693;SDS011;27377;50.666;9.150;2022-11-06T10:02:46;8.60;;;4.15;;
41693;SDS011;27377;50.666;9.150;2022-11-06T10:05:31;9.47;;;4.13;;
41693;SDS011;27377;50.666;9.150;2022-11-06T10:08:02;9.68;;;4.25;;
41693;SDS011;27377;50.666;9.150;2022-11-06T10:10:35;7.47;;;3.70;;
41693;SDS011;27377;50.666;9.150;2022-11-06T10:13:31;7.72;;;3.95;;
41693;SDS011;27377;50.666;9.150;2022-11-06T10:16:06;9.70;;;3.78;;
41693;SDS011;27377;50.666;9.150;2022-11-06T10:21:42;8.75;;;3.90;;
41693;SDS011;27377;50.666;9.150;2022-11-06T10:24:29;6.85;;;3.80;;
41693;SDS011;27377;50.666;9.150;2022-11-06T10:27:14;8.05;;;3.13;;
41693;SDS011;27377;50.666;9.150;2022-11-06T10:29:55;7.03;;;3.00;;
41693;SDS011;27377;50.666;9.150;2022-11-06T10:35:30;6.63;;;3.00;;
41693;SDS011;27377;50.666;9.150;2022-11-06T10:40:34;10.35;;;4.78;;
41693;SDS011;27377;50.666;9.150;2022-11-06T10:45:33;11.85;;;4.25;;
41693;SDS011;27377;50.666;9.150;2022-11-06T10:50:51;8.52;;;3.50;;
41693;SDS011;27377;50.666;9.150;2022-11-06T10:53:31;6.45;;;3.15;;
41693;SDS011;27377;50.666;9.150;2022-11-06T10:58:45;7.30;;;2.90;;
41693;SDS011;27377;50.666;9.150;2022-11-06T11:01:12;6.17;;;2.57;;
41693;SDS011;27377;50.666;9.150;2022-11-06T11:03:39;8.60;;;2.47;;
41693;SDS011;27377;50.666;9.150;2022-11-06T11:06:07;7.17;;;2.40;;
41693;SDS011;27377;50.666;9.150;2022-11-06T11:08:41;6.78;;;2.45;;
41693;SDS011;27377;50.666;9.150;2022-11-06T11:16:13;5.80;;;2.80;;
41693;SDS011;27377;50.666;9.150;2022-11-06T11:18:42;5.87;;;3.10;;
41693;SDS011;27377;50.666;9.150;2022-11-06T11:23:37;6.57;;;3.30;;
41693;SDS011;27377;50.666;9.150;2022-11-06T11:28:41;5.80;;;3.00;;
41693;SDS011;27377;50.666;9.150;2022-11-06T11:31:08;6.88;;;3.00;;
41693;SDS011;27377;50.666;9.150;2022-11-06T11:33:37;5.68;;;2.53;;
41693;SDS011;27377;50.666;9.150;2022-11-06T11:36:04;4.82;;;2.38;;
41693;SDS011;27377;50.666;9.150;2022-11-06T11:38:33;6.87;;;2.50;;
41693;SDS011;27377;50.666;9.150;2022-11-06T11:41:09;6.53;;;3.30;;
41693;SDS011;27377;50.666;9.150;2022-11-06T11:43:37;8.27;;;2.80;;
41693;SDS011;27377;50.666;9.150;2022-11-06T11:48:39;5.13;;;1.90;;
41693;SDS011;27377;50.666;9.150;2022-11-06T11:51:13;5.63;;;2.27;;
41693;SDS011;27377;50.666;9.150;2022-11-06T11:53:40;4.88;;;2.00;;
41693;SDS011;27377;50.666;9.150;2022-11-06T11:56:07;5.53;;;1.80;;
41693;SDS011;27377;50.666;9.150;2022-11-06T11:58:49;5.25;;;1.90;;
41693;SDS011;27377;50.666;9.150;2022-11-06T12:01:17;5.07;;;1.73;;
41693;SDS011;27377;50.666;9.150;2022-11-06T12:03:46;4.35;;;1.80;;
41693;SDS011;27377;50.666;9.150;2022-11-06T12:06:15;4.70;;;1.60;;
41693;SDS011;27377;50.666;9.150;2022-11-06T12:08:49;3.55;;;1.60;;
41693;SDS011;27377;50.666;9.150;2022-11-06T12:11:21;4.72;;;2.10;;
41693;SDS011;27377;50.666;9.150;2022-11-06T12:17:08;5.10;;;1.95;;
41693;SDS011;27377;50.666;9.150;2022-11-06T12:19:39;5.03;;;2.10;;
41693;SDS011;27377;50.666;9.150;2022-11-06T12:22:11;4.28;;;2.03;;
41693;SDS011;27377;50.666;9.150;2022-11-06T12:24:52;4.50;;;2.07;;
41693;SDS011;27377;50.666;9.150;2022-11-06T12:27:27;4.47;;;2.00;;
41693;SDS011;27377;50.666;9.150;2022-11-06T12:30:09;4.20;;;1.95;;
41693;SDS011;27377;50.666;9.150;2022-11-06T12:32:44;4.77;;;2.20;;
41693;SDS011;27377;50.666;9.150;2022-11-06T12:35:26;5.03;;;2.50;;
41693;SDS011;27377;50.666;9.150;2022-11-06T12:40:52;5.50;;;2.38;;
41693;SDS011;27377;50.666;9.150;2022-11-06T12:43:40;5.93;;;2.43;;
41693;SDS011;27377;50.666;9.150;2022-11-06T12:46:14;4.55;;;2.10;;
41693;SDS011;27377;50.666;9.150;2022-11-06T12:48:48;5.23;;;2.27;;
41693;SDS011;27377;50.666;9.150;2022-11-06T12:54:38;4.28;;;2.00;;
41693;SDS011;27377;50.666;9.150;2022-11-06T13:00:17;4.05;;;2.10;;
41693;SDS011;27377;50.666;9.150;2022-11-06T13:08:59;5.00;;;2.45;;
41693;SDS011;27377;50.666;9.150;2022-11-06T13:11:48;4.40;;;2.10;;
41693;SDS011;27377;50.666;9.150;2022-11-06T13:14:34;5.70;;;2.58;;
41693;SDS011;27377;50.666;9.150;2022-11-06T13:17:19;4.10;;;2.22;;
41693;SDS011;27377;50.666;9.150;2022-11-06T13:23:17;4.18;;;2.17;;
41693;SDS011;27377;50.666;9.150;2022-11-06T13:28:28;4.25;;;2.30;;
41693;SDS011;27377;50.666;9.150;2022-11-06T13:31:02;4.82;;;2.30;;
41693;SDS011;27377;50.666;9.150;2022-11-06T13:33:33;5.17;;;2.57;;
41693;SDS011;27377;50.666;9.150;2022-11-06T13:36:02;3.17;;;2.10;;
41693;SDS011;27377;50.666;9.150;2022-11-06T13:38:36;4.70;;;2.58;;
41693;SDS011;27377;50.666;9.150;2022-11-06T13:41:19;4.65;;;2.72;;
41693;SDS011;27377;50.666;9.150;2022-11-06T13:43:50;7.03;;;4.07;;
41693;SDS011;27377;50.666;9.150;2022-11-06T13:48:51;6.13;;;3.13;;
41693;SDS011;27377;50.666;9.150;2022-11-06T13:57:21;3.70;;;2.20;;
41693;SDS011;27377;50.666;9.150;2022-11-06T14:00:06;5.00;;;2.58;;
41693;SDS011;27377;50.666;9.150;2022-11-06T14:08:19;4.57;;;2.50;;
41693;SDS011;27377;50.666;9.150;2022-11-06T14:11:10;4.23;;;2.40;;
41693;SDS011;27377;50.666;9.150;2022-11-06T14:13:37;4.23;;;2.23;;
41693;SDS011;27377;50.666;9.150;2022-11-06T14:18:30;4.77;;;2.53;;
41693;SDS011;27377;50.666;9.150;2022-11-06T14:23:54;7.05;;;3.05;;
41693;SDS011;27377;50.666;9.150;2022-11-06T14:26:36;7.10;;;3.20;;
41693;SDS011;27377;50.666;9.150;2022-11-06T14:32:04;3.75;;;2.25;;
41693;SDS011;27377;50.666;9.150;2022-11-06T14:34:37;5.72;;;2.70;;
41693;SDS011;27377;50.666;9.150;2022-11-06T14:42:30;5.53;;;2.50;;
41693;SDS011;27377;50.666;9.150;2022-11-06T14:44:59;4.70;;;2.40;;
41693;SDS011;27377;50.666;9.150;2022-11-06T14:58:10;5.50;;;3.38;;
41693;SDS011;27377;50.666;9.150;2022-11-06T15:00:40;5.15;;;3.10;;
41693;SDS011;27377;50.666;9.150;2022-11-06T15:03:22;6.50;;;3.55;;
41693;SDS011;27377;50.666;9.150;2022-11-06T15:05:58;6.50;;;3.40;;
41693;SDS011;27377;50.666;9.150;2022-11-06T15:11:57;6.07;;;3.95;;
41693;SDS011;27377;50.666;9.150;2022-11-06T15:19:28;5.80;;;4.05;;
41693;SDS011;27377;50.666;9.150;2022-11-06T15:24:47;7.78;;;4.95;;
41693;SDS011;27377;50.666;9.150;2022-11-06T15:27:14;7.85;;;4.85;;
41693;SDS011;27377;50.666;9.150;2022-11-06T15:29:45;7.40;;;4.82;;
41693;SDS011;27377;50.666;9.150;2022-11-06T15:32:19;6.28;;;4.20;;
41693;SDS011;27377;50.666;9.150;2022-11-06T15:37:28;7.35;;;4.47;;
41693;SDS011;27377;50.666;9.150;2022-11-06T15:39:56;8.43;;;5.07;;
41693;SDS011;27377;50.666;9.150;2022-11-06T15:42:23;6.97;;;4.60;;
41693;SDS011;27377;50.666;9.150;2022-11-06T15:44:51;7.10;;;4.70;;
41693;SDS011;27377;50.666;9.150;2022-11-06T15:47:31;7.40;;;4.80;;
41693;SDS011;27377;50.666;9.150;2022-11-06T15:52:37;7.82;;;5.30;;
41693;SDS011;27377;50.666;9.150;2022-11-06T15:55:03;6.90;;;4.85;;
41693;SDS011;27377;50.666;9.150;2022-11-06T15:57:30;6.45;;;4.72;;
41693;SDS011;27377;50.666;9.150;2022-11-06T16:05:26;6.30;;;4.47;;
41693;SDS011;27377;50.666;9.150;2022-11-06T16:07:53;7.03;;;5.43;;
41693;SDS011;27377;50.666;9.150;2022-11-06T16:10:20;7.27;;;5.00;;
41693;SDS011;27377;50.666;9.150;2022-11-06T16:12:48;8.20;;;5.32;;
41693;SDS011;27377;50.666;9.150;2022-11-06T16:20:57;9.82;;;6.68;;
41693;SDS011;27377;50.666;9.150;2022-11-06T16:23:57;9.27;;;6.75;;
41693;SDS011;27377;50.666;9.150;2022-11-06T16:26:43;8.52;;;6.32;;
41693;SDS011;27377;50.666;9.150;2022-11-06T16:29:16;9.15;;;6.47;;
41693;SDS011;27377;50.666;9.150;2022-11-06T16:31:59;8.82;;;6.43;;
41693;SDS011;27377;50.666;9.150;2022-11-06T16:34:46;8.07;;;6.00;;
41693;SDS011;27377;50.666;9.150;2022-11-06T16:44:43;8.83;;;5.83;;
41693;SDS011;27377;50.666;9.150;2022-11-06T16:49:40;8.67;;;6.00;;
41693;SDS011;27377;50.666;9.150;2022-11-06T16:52:24;9.50;;;6.20;;
41693;SDS011;27377;50.666;9.150;2022-11-06T16:55:01;9.02;;;6.50;;
41693;SDS011;27377;50.666;9.150;2022-11-06T16:57:45;9.05;;;6.28;;
41693;SDS011;27377;50.666;9.150;2022-11-06T17:00:21;8.63;;;6.20;;
41693;SDS011;27377;50.666;9.150;2022-11-06T17:05:30;9.88;;;6.70;;
41693;SDS011;27377;50.666;9.150;2022-11-06T17:09:01;9.07;;;6.70;;
41693;SDS011;27377;50.666;9.150;2022-11-06T17:13:44;9.70;;;6.57;;
41693;SDS011;27377;50.666;9.150;2022-11-06T17:16:10;8.80;;;6.00;;
41693;SDS011;27377;50.666;9.150;2022-11-06T17:18:39;8.45;;;5.97;;
41693;SDS011;27377;50.666;9.150;2022-11-06T17:21:06;8.65;;;6.32;;
41693;SDS011;27377;50.666;9.150;2022-11-06T17:23:36;9.13;;;6.20;;
41693;SDS011;27377;50.666;9.150;2022-11-06T17:26:06;8.13;;;6.00;;
41693;SDS011;27377;50.666;9.150;2022-11-06T17:28:43;7.40;;;5.60;;
41693;SDS011;27377;50.666;9.150;2022-11-06T17:31:09;9.30;;;6.00;;
41693;SDS011;27377;50.666;9.150;2022-11-06T17:33:36;8.60;;;6.00;;
41693;SDS011;27377;50.666;9.150;2022-11-06T17:36:02;8.52;;;6.03;;
41693;SDS011;27377;50.666;9.150;2022-11-06T17:38:29;8.73;;;5.78;;
41693;SDS011;27377;50.666;9.150;2022-11-06T17:40:54;9.20;;;6.27;;
41693;SDS011;27377;50.666;9.150;2022-11-06T17:43:20;9.20;;;6.33;;
41693;SDS011;27377;50.666;9.150;2022-11-06T17:45:45;9.40;;;6.30;;
41693;SDS011;27377;50.666;9.150;2022-11-06T17:48:13;8.80;;;6.15;;
41693;SDS011;27377;50.666;9.150;2022-11-06T17:50:40;8.60;;;6.03;;
41693;SDS011;27377;50.666;9.150;2022-11-06T17:53:24;9.32;;;6.40;;
41693;SDS011;27377;50.666;9.150;2022-11-06T17:55:50;7.70;;;5.70;;
41693;SDS011;27377;50.666;9.150;2022-11-06T17:58:15;9.07;;;6.07;;
41693;SDS011;27377;50.666;9.150;2022-11-06T18:00:41;8.37;;;5.90;;